sensor_id;sensor_type;location;lat;lon;timestamp;pressure;altitude;pressure_sealevel;temperature;humidity
37610;BME280;23457;51.966;8.230;2024-03-23T00:53:32;100252.53;;;7.87;100.00
37610;BME280;23457;51.966;8.230;2024-03-23T00:55:59;100252.19;;;8.14;100.00
37610;BME280;23457;51.966;8.230;2024-03-23T00:58:25;100248.66;;;8.09;100.00
37610;BME280;23457;51.966;8.230;2024-03-23T01:00:50;100241.16;;;8.24;100.00
37610;BME280;23457;51.966;8.230;2024-03-23T01:03:16;100230.88;;;8.29;100.00
37610;BME280;23457;51.966;8.230;2024-03-23T01:05:42;100234.88;;;8.12;100.00
37610;BME280;23457;51.966;8.230;2024-03-23T01:08:28;100237.47;;;8.10;100.00
37610;BME280;23457;51.966;8.230;2024-03-23T01:11:01;100226.59;;;8.31;100.00
37610;BME280;23457;51.966;8.230;2024-03-23T01:13:29;100227.88;;;8.06;100.00
37610;BME280;23457;51.966;8.230;2024-03-23T01:15:55;100230.56;;;8.12;100.00
37610;BME280;23457;51.966;8.230;2024-03-23T01:18:22;100219.34;;;8.12;100.00
37610;BME280;23457;51.966;8.230;2024-03-23T01:20:49;100221.13;;;8.14;100.00
37610;BME280;23457;51.966;8.230;2024-03-23T01:23:15;100216.31;;;8.33;100.00
37610;BME280;23457;51.966;8.230;2024-03-23T01:25:41;100206.69;;;8.27;100.00
37610;BME280;23457;51.966;8.230;2024-03-23T01:28:07;100201.84;;;7.99;100.00
37610;BME280;23457;51.966;8.230;2024-03-23T01:30:34;100196.91;;;8.09;100.00
37610;BME280;23457;51.966;8.230;2024-03-23T01:33:00;100206.59;;;8.21;100.00
37610;BME280;23457;51.966;8.230;2024-03-23T01:35:26;100196.22;;;8.21;100.00
37610;BME280;23457;51.966;8.230;2024-03-23T01:37:52;100198.03;;;8.26;100.00
37610;BME280;23457;51.966;8.230;2024-03-23T01:40:17;100191.09;;;8.22;100.00
37610;BME280;23457;51.966;8.230;2024-03-23T01:42:55;100183.72;;;7.96;100.00
37610;BME280;23457;51.966;8.230;2024-03-23T01:45:21;100181.38;;;8.11;100.00
37610;BME280;23457;51.966;8.230;2024-03-23T01:47:46;100176.97;;;8.05;100.00
37610;BME280;23457;51.966;8.230;2024-03-23T01:50:13;100182.63;;;7.83;100.00
37610;BME280;23457;51.966;8.230;2024-03-23T01:52:39;100180.50;;;8.09;100.00
37610;BME280;23457;51.966;8.230;2024-03-23T01:55:05;100171.69;;;7.98;100.00
37610;BME280;23457;51.966;8.230;2024-03-23T01:57:31;100168.19;;;7.96;100.00
37610;BME280;23457;51.966;8.230;2024-03-23T01:59:57;100155.88;;;7.82;100.00
37610;BME280;23457;51.966;8.230;2024-03-23T02:02:26;100157.09;;;8.03;100.00
37610;BME280;23457;51.966;8.230;2024-03-23T02:04:52;100165.50;;;7.91;100.00
37610;BME280;23457;51.966;8.230;2024-03-23T02:07:18;100160.59;;;8.06;100.00
37610;BME280;23457;51.966;8.230;2024-03-23T02:09:43;100152.97;;;8.15;100.00
37610;BME280;23457;51.966;8.230;2024-03-23T02:12:09;100156.66;;;8.30;100.00
37610;BME280;23457;51.966;8.230;2024-03-23T02:14:36;100143.28;;;8.02;100.00
37610;BME280;23457;51.966;8.230;2024-03-23T02:17:01;100146.53;;;7.90;100.00
37610;BME280;23457;51.966;8.230;2024-03-23T02:19:27;100140.38;;;7.85;100.00
37610;BME280;23457;51.966;8.230;2024-03-23T02:21:53;100144.09;;;8.01;100.00
37610;BME280;23457;51.966;8.230;2024-03-23T02:24:18;100142.97;;;7.84;100.00
37610;BME280;23457;51.966;8.230;2024-03-23T02:26:44;100135.22;;;7.84;100.00
37610;BME280;23457;51.966;8.230;2024-03-23T02:29:10;100140.78;;;7.59;100.00
37610;BME280;23457;51.966;8.230;2024-03-23T02:31:36;100149.63;;;7.73;100.00
37610;BME280;23457;51.966;8.230;2024-03-23T02:34:01;100137.75;;;7.82;100.00
37610;BME280;23457;51.966;8.230;2024-03-23T02:36:28;100139.34;;;7.76;100.00
37610;BME280;23457;51.966;8.230;2024-03-23T02:38:53;100141.16;;;7.80;100.00
37610;BME280;23457;51.966;8.230;2024-03-23T02:41:19;100136.97;;;7.88;100.00
37610;BME280;23457;51.966;8.230;2024-03-23T02:43:51;100133.28;;;7.74;100.00
37610;BME280;23457;51.966;8.230;2024-03-23T02:46:17;100128.31;;;7.84;100.00
37610;BME280;23457;51.966;8.230;2024-03-23T02:48:43;100120.72;;;7.95;100.00
37610;BME280;23457;51.966;8.230;2024-03-23T02:51:09;100132.81;;;7.96;100.00
37610;BME280;23457;51.966;8.230;2024-03-23T02:53:35;100133.84;;;7.58;100.00
37610;BME280;23457;51.966;8.230;2024-03-23T02:56:00;100127.56;;;7.43;100.00
37610;BME280;23457;51.966;8.230;2024-03-23T02:58:26;100123.09;;;7.36;100.00
37610;BME280;23457;51.966;8.230;2024-03-23T03:00:52;100118.94;;;7.44;100.00
37610;BME280;23457;51.966;8.230;2024-03-23T03:03:17;100119.66;;;7.37;100.00
37610;BME280;23457;51.966;8.230;2024-03-23T03:05:43;100112.16;;;7.51;100.00
37610;BME280;23457;51.966;8.230;2024-03-23T03:08:09;100113.47;;;7.29;100.00
37610;BME280;23457;51.966;8.230;2024-03-23T03:10:35;100106.03;;;7.44;100.00
37610;BME280;23457;51.966;8.230;2024-03-23T03:13:02;100117.22;;;7.43;100.00
37610;BME280;23457;51.966;8.230;2024-03-23T03:15:28;100116.97;;;7.31;100.00
37610;BME280;23457;51.966;8.230;2024-03-23T03:17:53;100122.81;;;7.21;100.00
37610;BME280;23457;51.966;8.230;2024-03-23T03:20:19;100115.31;;;7.36;100.00
37610;BME280;23457;51.966;8.230;2024-03-23T03:22:47;100118.94;;;7.44;100.00
37610;BME280;23457;51.966;8.230;2024-03-23T03:25:13;100105.38;;;7.56;100.00
37610;BME280;23457;51.966;8.230;2024-03-23T03:27:39;100106.06;;;7.47;100.00
37610;BME280;23457;51.966;8.230;2024-03-23T03:30:05;100100.78;;;7.41;100.00
37610;BME280;23457;51.966;8.230;2024-03-23T03:32:32;100097.88;;;7.70;100.00
37610;BME280;23457;51.966;8.230;2024-03-23T03:34:58;100101.44;;;7.78;100.00
37610;BME280;23457;51.966;8.230;2024-03-23T03:37:24;100103.94;;;7.72;100.00
37610;BME280;23457;51.966;8.230;2024-03-23T03:39:50;100101.50;;;7.81;100.00
37610;BME280;23457;51.966;8.230;2024-03-23T03:42:16;100110.91;;;7.76;100.00
37610;BME280;23457;51.966;8.230;2024-03-23T03:44:42;100104.09;;;7.81;100.00
37610;BME280;23457;51.966;8.230;2024-03-23T03:47:07;100092.50;;;7.59;100.00
37610;BME280;23457;51.966;8.230;2024-03-23T03:49:33;100105.59;;;7.68;100.00
37610;BME280;23457;51.966;8.230;2024-03-23T03:51:59;100105.53;;;7.65;100.00
37610;BME280;23457;51.966;8.230;2024-03-23T03:54:26;100102.75;;;7.54;100.00
37610;BME280;23457;51.966;8.230;2024-03-23T03:56:52;100113.72;;;7.41;100.00
37610;BME280;23457;51.966;8.230;2024-03-23T03:59:18;100108.91;;;7.16;100.00
37610;BME280;23457;51.966;8.230;2024-03-23T04:01:44;100095.38;;;7.29;100.00
37610;BME280;23457;51.966;8.230;2024-03-23T04:04:10;100096.25;;;7.30;100.00
37610;BME280;23457;51.966;8.230;2024-03-23T04:06:37;100102.13;;;7.21;100.00
37610;BME280;23457;51.966;8.230;2024-03-23T04:09:02;100100.00;;;7.45;100.00
37610;BME280;23457;51.966;8.230;2024-03-23T04:11:28;100105.56;;;7.20;100.00
37610;BME280;23457;51.966;8.230;2024-03-23T04:13:54;100098.88;;;7.31;100.00
37610;BME280;23457;51.966;8.230;2024-03-23T04:16:32;100103.56;;;7.07;100.00
37610;BME280;23457;51.966;8.230;2024-03-23T04:18:58;100099.97;;;7.44;100.00
37610;BME280;23457;51.966;8.230;2024-03-23T04:21:23;100092.50;;;7.61;100.00
37610;BME280;23457;51.966;8.230;2024-03-23T04:23:49;100091.53;;;7.07;100.00
37610;BME280;23457;51.966;8.230;2024-03-23T04:26:15;100089.22;;;7.21;100.00
37610;BME280;23457;51.966;8.230;2024-03-23T04:28:41;100094.72;;;6.96;100.00
37610;BME280;23457;51.966;8.230;2024-03-23T04:31:06;100096.50;;;7.00;100.00
37610;BME280;23457;51.966;8.230;2024-03-23T04:33:32;100088.31;;;7.19;100.00
37610;BME280;23457;51.966;8.230;2024-03-23T04:35:58;100079.00;;;7.29;100.00
37610;BME280;23457;51.966;8.230;2024-03-23T04:38:23;100056.06;;;7.45;100.00
37610;BME280;23457;51.966;8.230;2024-03-23T04:40:59;100036.63;;;7.19;100.00
37610;BME280;23457;51.966;8.230;2024-03-23T04:43:25;100057.38;;;7.25;100.00
37610;BME280;23457;51.966;8.230;2024-03-23T04:45:51;100063.53;;;7.30;100.00
37610;BME280;23457;51.966;8.230;2024-03-23T04:48:20;100064.75;;;7.50;100.00
37610;BME280;23457;51.966;8.230;2024-03-23T04:50:47;100050.13;;;7.52;100.00
37610;BME280;23457;51.966;8.230;2024-03-23T04:53:12;100065.06;;;7.67;100.00
37610;BME280;23457;51.966;8.230;2024-03-23T04:55:38;100079.97;;;7.35;100.00
37610;BME280;23457;51.966;8.230;2024-03-23T04:58:04;100064.53;;;7.38;100.00
37610;BME280;23457;51.966;8.230;2024-03-23T05:00:29;100072.91;;;7.25;100.00
37610;BME280;23457;51.966;8.230;2024-03-23T05:02:55;100068.69;;;7.30;100.00
37610;BME280;23457;51.966;8.230;2024-03-23T05:05:21;100058.44;;;7.35;100.00
37610;BME280;23457;51.966;8.230;2024-03-23T05:07:46;100061.00;;;7.33;100.00
37610;BME280;23457;51.966;8.230;2024-03-23T05:10:12;100069.31;;;7.17;100.00
37610;BME280;23457;51.966;8.230;2024-03-23T05:12:39;100061.88;;;7.35;100.00
37610;BME280;23457;51.966;8.230;2024-03-23T05:15:05;100057.53;;;7.31;100.00
37610;BME280;23457;51.966;8.230;2024-03-23T05:17:32;100054.53;;;7.57;100.00
37610;BME280;23457;51.966;8.230;2024-03-23T05:19:58;100055.00;;;7.34;100.00
37610;BME280;23457;51.966;8.230;2024-03-23T05:22:24;100061.63;;;7.20;100.00
37610;BME280;23457;51.966;8.230;2024-03-23T05:24:50;100058.69;;;7.48;100.00
37610;BME280;23457;51.966;8.230;2024-03-23T05:27:16;100060.66;;;7.15;100.00
37610;BME280;23457;51.966;8.230;2024-03-23T05:29:41;100056.44;;;7.20;100.00
37610;BME280;23457;51.966;8.230;2024-03-23T05:32:07;100068.31;;;7.09;100.00
37610;BME280;23457;51.966;8.230;2024-03-23T05:34:33;100074.94;;;7.41;100.00
37610;BME280;23457;51.966;8.230;2024-03-23T05:36:59;100069.41;;;7.22;100.00
37610;BME280;23457;51.966;8.230;2024-03-23T05:39:25;100064.31;;;7.26;100.00
37610;BME280;23457;51.966;8.230;2024-03-23T05:41:50;100068.56;;;7.24;100.00
37610;BME280;23457;51.966;8.230;2024-03-23T05:44:16;100073.09;;;7.34;100.00
37610;BME280;23457;51.966;8.230;2024-03-23T05:46:42;100066.91;;;7.28;100.00
37610;BME280;23457;51.966;8.230;2024-03-23T05:49:15;100065.47;;;7.42;100.00
37610;BME280;23457;51.966;8.230;2024-03-23T05:51:41;100061.25;;;7.47;100.00
37610;BME280;23457;51.966;8.230;2024-03-23T05:54:06;100060.03;;;7.28;100.00
37610;BME280;23457;51.966;8.230;2024-03-23T05:56:32;100063.69;;;7.39;100.00
37610;BME280;23457;51.966;8.230;2024-03-23T05:58:58;100059.50;;;7.44;100.00
37610;BME280;23457;51.966;8.230;2024-03-23T06:01:23;100061.63;;;7.20;100.00
37610;BME280;23457;51.966;8.230;2024-03-23T06:03:49;100061.63;;;7.20;100.00
37610;BME280;23457;51.966;8.230;2024-03-23T06:06:15;100065.09;;;7.21;100.00
37610;BME280;23457;51.966;8.230;2024-03-23T06:08:40;100076.16;;;7.15;100.00
37610;BME280;23457;51.966;8.230;2024-03-23T06:11:06;100068.53;;;7.23;100.00
37610;BME280;23457;51.966;8.230;2024-03-23T06:13:32;100070.25;;;7.22;100.00
37610;BME280;23457;51.966;8.230;2024-03-23T06:16:00;100072.56;;;7.07;100.00
37610;BME280;23457;51.966;8.230;2024-03-23T06:18:29;100067.56;;;7.16;100.00
37610;BME280;23457;51.966;8.230;2024-03-23T06:20:55;100064.44;;;7.32;100.00
37610;BME280;23457;51.966;8.230;2024-03-23T06:23:20;100076.38;;;7.27;100.00
37610;BME280;23457;51.966;8.230;2024-03-23T06:25:47;100078.34;;;6.95;100.00
37610;BME280;23457;51.966;8.230;2024-03-23T06:28:13;100081.44;;;7.19;100.00
37610;BME280;23457;51.966;8.230;2024-03-23T06:30:39;100077.91;;;7.16;100.00
37610;BME280;23457;51.966;8.230;2024-03-23T06:33:05;100077.44;;;6.93;100.00
37610;BME280;23457;51.966;8.230;2024-03-23T06:35:31;100078.25;;;6.91;100.00
37610;BME280;23457;51.966;8.230;2024-03-23T06:37:57;100083.56;;;6.98;100.00
37610;BME280;23457;51.966;8.230;2024-03-23T06:40:23;100087.28;;;7.12;100.00
37610;BME280;23457;51.966;8.230;2024-03-23T06:42:49;100080.47;;;7.60;100.00
37610;BME280;23457;51.966;8.230;2024-03-23T06:45:16;100083.13;;;7.19;100.00
37610;BME280;23457;51.966;8.230;2024-03-23T06:47:42;100077.72;;;7.07;100.00
37610;BME280;23457;51.966;8.230;2024-03-23T06:50:08;100078.69;;;7.57;100.00
37610;BME280;23457;51.966;8.230;2024-03-23T06:52:36;100084.19;;;7.29;100.00
37610;BME280;23457;51.966;8.230;2024-03-23T06:55:01;100079.88;;;7.29;100.00
37610;BME280;23457;51.966;8.230;2024-03-23T06:57:30;100080.03;;;7.38;100.00
37610;BME280;23457;51.966;8.230;2024-03-23T06:59:55;100084.34;;;7.86;100.00
37610;BME280;23457;51.966;8.230;2024-03-23T07:02:21;100089.94;;;7.59;100.00
37610;BME280;23457;51.966;8.230;2024-03-23T07:04:47;100094.47;;;7.74;100.00
37610;BME280;23457;51.966;8.230;2024-03-23T07:07:12;100092.56;;;7.64;100.00
37610;BME280;23457;51.966;8.230;2024-03-23T07:09:38;100088.88;;;7.99;100.00
37610;BME280;23457;51.966;8.230;2024-03-23T07:12:04;100091.00;;;7.72;100.00
37610;BME280;23457;51.966;8.230;2024-03-23T07:14:30;100093.00;;;7.88;100.00
37610;BME280;23457;51.966;8.230;2024-03-23T07:16:56;100087.66;;;7.79;100.00
37610;BME280;23457;51.966;8.230;2024-03-23T07:19:22;100083.06;;;7.63;100.00
37610;BME280;23457;51.966;8.230;2024-03-23T07:22:13;100079.28;;;7.92;100.00
37610;BME280;23457;51.966;8.230;2024-03-23T07:24:40;100076.44;;;7.77;100.00
37610;BME280;23457;51.966;8.230;2024-03-23T07:27:05;100070.50;;;7.82;100.00
37610;BME280;23457;51.966;8.230;2024-03-23T07:29:35;100077.44;;;7.85;100.00
37610;BME280;23457;51.966;8.230;2024-03-23T07:32:01;100077.63;;;7.96;100.00
37610;BME280;23457;51.966;8.230;2024-03-23T07:34:27;100072.03;;;7.73;100.00
37610;BME280;23457;51.966;8.230;2024-03-23T07:36:52;100081.34;;;8.14;100.00
37610;BME280;23457;51.966;8.230;2024-03-23T07:39:18;100074.47;;;8.15;100.00
37610;BME280;23457;51.966;8.230;2024-03-23T07:41:44;100072.50;;;8.00;100.00
37610;BME280;23457;51.966;8.230;2024-03-23T07:44:10;100077.00;;;8.10;100.00
37610;BME280;23457;51.966;8.230;2024-03-23T07:46:36;100073.44;;;8.05;100.00
37610;BME280;23457;51.966;8.230;2024-03-23T07:49:04;100080.22;;;7.96;100.00
37610;BME280;23457;51.966;8.230;2024-03-23T07:51:30;100069.94;;;8.02;100.00
37610;BME280;23457;51.966;8.230;2024-03-23T07:53:55;100079.47;;;8.04;100.00
37610;BME280;23457;51.966;8.230;2024-03-23T07:56:21;100076.06;;;8.07;100.00
37610;BME280;23457;51.966;8.230;2024-03-23T07:58:49;100081.47;;;8.20;100.00
37610;BME280;23457;51.966;8.230;2024-03-23T08:01:16;100083.81;;;8.05;100.00
37610;BME280;23457;51.966;8.230;2024-03-23T08:03:45;100079.78;;;8.25;100.00
37610;BME280;23457;51.966;8.230;2024-03-23T08:06:16;100084.28;;;8.33;100.00
37610;BME280;23457;51.966;8.230;2024-03-23T08:08:44;100084.94;;;8.21;100.00
37610;BME280;23457;51.966;8.230;2024-03-23T08:11:10;100089.00;;;8.07;100.00
37610;BME280;23457;51.966;8.230;2024-03-23T08:13:39;100083.03;;;8.12;100.00
37610;BME280;23457;51.966;8.230;2024-03-23T08:16:05;100085.75;;;8.20;100.00
37610;BME280;23457;51.966;8.230;2024-03-23T08:18:31;100084.28;;;8.33;100.00
37610;BME280;23457;51.966;8.230;2024-03-23T08:21:05;100080.72;;;8.29;100.00
37610;BME280;23457;51.966;8.230;2024-03-23T08:23:34;100065.81;;;8.14;100.00
37610;BME280;23457;51.966;8.230;2024-03-23T08:26:09;100076.03;;;8.59;100.00
37610;BME280;23457;51.966;8.230;2024-03-23T08:28:36;100077.16;;;8.80;100.00
37610;BME280;23457;51.966;8.230;2024-03-23T08:31:03;100076.81;;;8.54;100.00
37610;BME280;23457;51.966;8.230;2024-03-23T08:33:31;100072.94;;;8.88;100.00
37610;BME280;23457;51.966;8.230;2024-03-23T08:36:06;100066.97;;;8.95;100.00
37610;BME280;23457;51.966;8.230;2024-03-23T08:38:33;100063.03;;;9.29;100.00
37610;BME280;23457;51.966;8.230;2024-03-23T08:40:59;100063.00;;;9.23;100.00
37610;BME280;23457;51.966;8.230;2024-03-23T08:43:25;100058.56;;;9.16;100.00
37610;BME280;23457;51.966;8.230;2024-03-23T08:45:51;100059.00;;;9.55;100.00
37610;BME280;23457;51.966;8.230;2024-03-23T08:48:19;100062.63;;;9.76;100.00
37610;BME280;23457;51.966;8.230;2024-03-23T08:50:46;100064.88;;;9.36;100.00
37610;BME280;23457;51.966;8.230;2024-03-23T08:53:13;100058.00;;;9.43;100.00
37610;BME280;23457;51.966;8.230;2024-03-23T08:55:38;100061.50;;;9.46;100.00
37610;BME280;23457;51.966;8.230;2024-03-23T08:58:04;100052.91;;;9.52;100.00
37610;BME280;23457;51.966;8.230;2024-03-23T09:00:34;100071.03;;;9.50;100.00
37610;BME280;23457;51.966;8.230;2024-03-23T09:03:00;100071.94;;;9.52;100.00
37610;BME280;23457;51.966;8.230;2024-03-23T09:05:27;100067.72;;;9.62;100.00
37610;BME280;23457;51.966;8.230;2024-03-23T09:07:54;100064.03;;;9.42;100.00
37610;BME280;23457;51.966;8.230;2024-03-23T09:10:19;100064.53;;;9.07;100.00
37610;BME280;23457;51.966;8.230;2024-03-23T09:12:45;100071.03;;;8.73;100.00
37610;BME280;23457;51.966;8.230;2024-03-23T09:15:11;100084.53;;;8.52;100.00
37610;BME280;23457;51.966;8.230;2024-03-23T09:17:42;100074.66;;;8.87;100.00
37610;BME280;23457;51.966;8.230;2024-03-23T09:20:12;100090.19;;;8.87;100.00
37610;BME280;23457;51.966;8.230;2024-03-23T09:22:40;100085.38;;;9.16;100.00
37610;BME280;23457;51.966;8.230;2024-03-23T09:25:07;100083.94;;;8.70;100.00
37610;BME280;23457;51.966;8.230;2024-03-23T09:27:32;100080.31;;;9.27;100.00
37610;BME280;23457;51.966;8.230;2024-03-23T09:29:58;100070.00;;;9.33;100.00
37610;BME280;23457;51.966;8.230;2024-03-23T09:32:24;100077.00;;;9.42;100.00
37610;BME280;23457;51.966;8.230;2024-03-23T09:34:50;100070.19;;;9.50;100.00
37610;BME280;23457;51.966;8.230;2024-03-23T09:37:15;100077.44;;;9.03;100.00
37610;BME280;23457;51.966;8.230;2024-03-23T09:39:41;100074.09;;;9.13;100.00
37610;BME280;23457;51.966;8.230;2024-03-23T09:42:07;100081.78;;;9.05;100.00
37610;BME280;23457;51.966;8.230;2024-03-23T09:44:58;100078.19;;;8.92;100.00
37610;BME280;23457;51.966;8.230;2024-03-23T09:47:24;100077.84;;;9.39;100.00
37610;BME280;23457;51.966;8.230;2024-03-23T09:49:51;100064.03;;;9.40;100.00
37610;BME280;23457;51.966;8.230;2024-03-23T09:52:17;100071.63;;;9.25;100.00
37610;BME280;23457;51.966;8.230;2024-03-23T09:54:43;100070.63;;;9.11;100.00
37610;BME280;23457;51.966;8.230;2024-03-23T09:57:08;100063.13;;;9.35;100.00
37610;BME280;23457;51.966;8.230;2024-03-23T09:59:34;100070.94;;;9.41;100.00
37610;BME280;23457;51.966;8.230;2024-03-23T10:02:01;100055.88;;;9.07;100.00
37610;BME280;23457;51.966;8.230;2024-03-23T10:04:40;100065.47;;;9.14;100.00
37610;BME280;23457;51.966;8.230;2024-03-23T10:07:19;100054.91;;;8.95;100.00
37610;BME280;23457;51.966;8.230;2024-03-23T10:09:46;100057.69;;;9.11;100.00
37610;BME280;23457;51.966;8.230;2024-03-23T10:12:18;100051.78;;;9.24;100.00
37610;BME280;23457;51.966;8.230;2024-03-23T10:14:44;100058.69;;;9.23;100.00
37610;BME280;23457;51.966;8.230;2024-03-23T10:17:22;100049.34;;;9.42;100.00
37610;BME280;23457;51.966;8.230;2024-03-23T10:19:52;100049.22;;;9.30;100.00
37610;BME280;23457;51.966;8.230;2024-03-23T10:22:24;100053.66;;;9.37;100.00
37610;BME280;23457;51.966;8.230;2024-03-23T10:24:50;100046.09;;;9.63;100.00
37610;BME280;23457;51.966;8.230;2024-03-23T10:27:20;100050.38;;;9.58;100.00
37610;BME280;23457;51.966;8.230;2024-03-23T10:29:47;100052.25;;;9.73;95.31
37610;BME280;23457;51.966;8.230;2024-03-23T10:32:17;100052.50;;;9.14;91.42
37610;BME280;23457;51.966;8.230;2024-03-23T10:35:18;100058.34;;;8.94;95.19
37610;BME280;23457;51.966;8.230;2024-03-23T10:37:45;100049.31;;;9.36;96.63
37610;BME280;23457;51.966;8.230;2024-03-23T10:40:12;100052.22;;;9.69;92.84
37610;BME280;23457;51.966;8.230;2024-03-23T10:42:39;100053.13;;;9.75;91.90
37610;BME280;23457;51.966;8.230;2024-03-23T10:45:05;100058.28;;;9.72;97.25
37610;BME280;23457;51.966;8.230;2024-03-23T10:47:33;100048.16;;;10.03;93.09
37610;BME280;23457;51.966;8.230;2024-03-23T10:49:59;100054.09;;;9.86;95.38
37610;BME280;23457;51.966;8.230;2024-03-23T10:52:25;100040.47;;;10.17;94.78
37610;BME280;23457;51.966;8.230;2024-03-23T10:54:51;100045.06;;;10.55;94.87
37610;BME280;23457;51.966;8.230;2024-03-23T10:57:25;100043.31;;;10.48;94.96
37610;BME280;23457;51.966;8.230;2024-03-23T10:59:53;100048.59;;;10.69;89.88
37610;BME280;23457;51.966;8.230;2024-03-23T11:02:20;100040.56;;;10.23;89.27
37610;BME280;23457;51.966;8.230;2024-03-23T11:04:46;100035.59;;;10.63;92.16
37610;BME280;23457;51.966;8.230;2024-03-23T11:09:53;100031.44;;;11.18;89.57
37610;BME280;23457;51.966;8.230;2024-03-23T11:15:24;100023.66;;;11.21;82.76
37610;BME280;23457;51.966;8.230;2024-03-23T11:18:07;100034.91;;;11.11;80.46
37610;BME280;23457;51.966;8.230;2024-03-23T11:20:37;100025.50;;;12.12;81.04
37610;BME280;23457;51.966;8.230;2024-03-23T11:23:04;100023.72;;;11.38;81.81
37610;BME280;23457;51.966;8.230;2024-03-23T11:25:30;100018.56;;;11.96;84.44
37610;BME280;23457;51.966;8.230;2024-03-23T11:28:16;100025.38;;;12.54;80.63
37610;BME280;23457;51.966;8.230;2024-03-23T11:30:42;100021.16;;;12.05;84.58
37610;BME280;23457;51.966;8.230;2024-03-23T11:33:08;100020.22;;;12.50;80.42
37610;BME280;23457;51.966;8.230;2024-03-23T11:35:38;100024.50;;;12.57;77.10
37610;BME280;23457;51.966;8.230;2024-03-23T11:38:13;100023.69;;;12.50;70.52
37610;BME280;23457;51.966;8.230;2024-03-23T11:40:44;100010.69;;;12.32;69.23
37610;BME280;23457;51.966;8.230;2024-03-23T11:43:13;100009.69;;;12.73;74.38
37610;BME280;23457;51.966;8.230;2024-03-23T11:45:42;100007.72;;;13.26;72.21
37610;BME280;23457;51.966;8.230;2024-03-23T11:48:22;100014.94;;;12.62;68.84
37610;BME280;23457;51.966;8.230;2024-03-23T11:50:55;100013.34;;;11.80;66.75
37610;BME280;23457;51.966;8.230;2024-03-23T11:53:23;100022.00;;;11.57;69.95
37610;BME280;23457;51.966;8.230;2024-03-23T11:58:18;100019.38;;;11.54;68.02
37610;BME280;23457;51.966;8.230;2024-03-23T12:00:52;100021.09;;;11.41;67.84
37610;BME280;23457;51.966;8.230;2024-03-23T12:03:19;100017.47;;;10.80;67.21
37610;BME280;23457;51.966;8.230;2024-03-23T12:05:58;100038.84;;;10.25;67.37
37610;BME280;23457;51.966;8.230;2024-03-23T12:08:34;100047.94;;;9.76;72.53
37610;BME280;23457;51.966;8.230;2024-03-23T12:11:11;100044.13;;;9.39;81.89
37610;BME280;23457;51.966;8.230;2024-03-23T12:13:38;100038.81;;;9.27;81.98
37610;BME280;23457;51.966;8.230;2024-03-23T12:16:20;100049.34;;;9.41;83.41
37610;BME280;23457;51.966;8.230;2024-03-23T12:18:47;100048.81;;;9.77;79.18
37610;BME280;23457;51.966;8.230;2024-03-23T12:21:14;100039.06;;;10.69;77.24
37610;BME280;23457;51.966;8.230;2024-03-23T12:23:41;100040.41;;;10.08;76.86
37610;BME280;23457;51.966;8.230;2024-03-23T12:26:07;100042.25;;;10.18;78.03
37610;BME280;23457;51.966;8.230;2024-03-23T12:28:33;100041.13;;;9.89;77.60
37610;BME280;23457;51.966;8.230;2024-03-23T12:30:59;100044.78;;;10.15;76.54
37610;BME280;23457;51.966;8.230;2024-03-23T12:33:24;100034.81;;;10.85;75.80
37610;BME280;23457;51.966;8.230;2024-03-23T12:35:51;100041.88;;;11.21;74.47
37610;BME280;23457;51.966;8.230;2024-03-23T12:38:23;100027.97;;;11.10;78.17
37610;BME280;23457;51.966;8.230;2024-03-23T12:40:51;100026.22;;;11.00;75.61
37610;BME280;23457;51.966;8.230;2024-03-23T12:43:17;100025.38;;;11.18;73.45
37610;BME280;23457;51.966;8.230;2024-03-23T12:45:49;100023.63;;;11.01;71.48
37610;BME280;23457;51.966;8.230;2024-03-23T12:48:16;100026.34;;;11.64;70.05
37610;BME280;23457;51.966;8.230;2024-03-23T12:51:06;100020.25;;;11.66;69.00
37610;BME280;23457;51.966;8.230;2024-03-23T12:53:32;100025.50;;;11.92;69.66
37610;BME280;23457;51.966;8.230;2024-03-23T12:55:58;100015.94;;;11.94;71.13
37610;BME280;23457;51.966;8.230;2024-03-23T12:58:24;100022.06;;;11.90;69.30
37610;BME280;23457;51.966;8.230;2024-03-23T13:00:49;100026.38;;;12.15;68.62
37610;BME280;23457;51.966;8.230;2024-03-23T13:03:15;100020.25;;;12.27;69.66
37610;BME280;23457;51.966;8.230;2024-03-23T13:05:41;100023.69;;;12.49;70.13
37610;BME280;23457;51.966;8.230;2024-03-23T13:08:07;100029.00;;;11.76;66.90
37610;BME280;23457;51.966;8.230;2024-03-23T13:10:33;100032.34;;;11.40;74.48
37610;BME280;23457;51.966;8.230;2024-03-23T13:12:58;100048.75;;;11.04;81.15
37610;BME280;23457;51.966;8.230;2024-03-23T13:15:28;100048.59;;;10.67;82.78
37610;BME280;23457;51.966;8.230;2024-03-23T13:17:53;100091.00;;;9.56;85.87
37610;BME280;23457;51.966;8.230;2024-03-23T13:20:19;100085.66;;;8.14;90.99
37610;BME280;23457;51.966;8.230;2024-03-23T13:22:45;100078.09;;;7.72;100.00
37610;BME280;23457;51.966;8.230;2024-03-23T13:25:12;100060.72;;;7.66;100.00
37610;BME280;23457;51.966;8.230;2024-03-23T13:27:38;100047.69;;;7.13;100.00
37610;BME280;23457;51.966;8.230;2024-03-23T13:30:04;100042.94;;;8.40;100.00
37610;BME280;23457;51.966;8.230;2024-03-23T13:32:31;100035.97;;;9.03;100.00
37610;BME280;23457;51.966;8.230;2024-03-23T13:34:56;100033.97;;;9.59;100.00
37610;BME280;23457;51.966;8.230;2024-03-23T13:37:48;100020.72;;;10.40;100.00
37610;BME280;23457;51.966;8.230;2024-03-23T13:40:14;100018.81;;;10.12;99.38
37610;BME280;23457;51.966;8.230;2024-03-23T13:42:39;100027.94;;;10.96;100.00
37610;BME280;23457;51.966;8.230;2024-03-23T13:45:05;100015.94;;;11.50;100.00
37610;BME280;23457;51.966;8.230;2024-03-23T13:47:31;100022.00;;;11.61;96.17
37610;BME280;23457;51.966;8.230;2024-03-23T13:49:57;100023.72;;;11.58;95.84
37610;BME280;23457;51.966;8.230;2024-03-23T13:52:22;100016.78;;;11.46;89.57